Time;durP1;ratioP1;P1;durP2;ratioP2;P2;SDS_P1;SDS_P2;PMS_P1;PMS_P2;Temp;Humidity;BMP_temperature;BMP_pressure;BME280_temperature;BME280_humidity;BME280_pressure;Samples;Min_cycle;Max_cycle;Signal;HPM_P1;HPM_P2
2023/07/15 00:00:27;;;;;;;3.50;3.20;;;;;;;;;;5015496;28;20550;-58
2023/07/15 00:02:54;;;;;;;4.20;3.90;;;;;;;;;;5015501;28;20886;-59
2023/07/15 00:05:26;;;;;;;4.00;3.63;;;;;;;;;;5015247;28;20551;-57
2023/07/15 00:07:53;;;;;;;3.60;3.30;;;;;;;;;;5015572;28;20538;-58
2023/07/15 00:10:21;;;;;;;3.90;3.70;;;;;;;;;;5015557;28;20450;-58
2023/07/15 00:12:47;;;;;;;3.97;3.67;;;;;;;;;;5015336;28;20635;-58
2023/07/15 00:15:14;;;;;;;4.03;3.63;;;;;;;;;;5015262;28;20453;-58
2023/07/15 00:17:42;;;;;;;4.87;4.57;;;;;;;;;;5015079;28;20896;-58
2023/07/15 00:20:14;;;;;;;4.20;3.90;;;;;;;;;;5015056;28;20942;-58
2023/07/15 00:22:44;;;;;;;3.73;3.43;;;;;;;;;;5015236;28;20454;-58
2023/07/15 00:25:13;;;;;;;4.00;3.70;;;;;;;;;;5014860;28;20513;-58
2023/07/15 00:27:40;;;;;;;3.67;3.37;;;;;;;;;;5015004;28;20459;-57
2023/07/15 00:30:09;;;;;;;3.33;3.13;;;;;;;;;;5014810;28;20511;-58
2023/07/15 00:32:35;;;;;;;3.90;3.40;;;;;;;;;;5015106;28;20453;-58
2023/07/15 00:35:02;;;;;;;3.53;3.33;;;;;;;;;;5015041;28;20455;-59
2023/07/15 00:37:29;;;;;;;5.50;3.60;;;;;;;;;;5014900;28;20556;-57
2023/07/15 00:39:58;;;;;;;3.57;3.30;;;;;;;;;;5014850;28;20822;-56
2023/07/15 00:42:43;;;;;;;5.07;3.30;;;;;;;;;;5014730;28;20454;-57
2023/07/15 00:45:11;;;;;;;3.87;3.57;;;;;;;;;;5014678;28;20568;-58
2023/07/15 00:47:45;;;;;;;3.77;3.47;;;;;;;;;;5014178;28;20543;-58
2023/07/15 00:50:13;;;;;;;4.00;3.63;;;;;;;;;;5014674;28;20551;-57
2023/07/15 00:52:40;;;;;;;3.70;3.40;;;;;;;;;;5014653;28;20965;-58
2023/07/15 00:55:08;;;;;;;5.90;3.70;;;;;;;;;;5014186;28;20873;-58
2023/07/15 00:57:35;;;;;;;3.63;3.33;;;;;;;;;;5014301;28;20491;-57
2023/07/15 01:00:09;;;;;;;3.60;3.30;;;;;;;;;;5014289;28;21003;-59
2023/07/15 01:02:37;;;;;;;3.50;3.27;;;;;;;;;;5014449;28;20454;-58
2023/07/15 01:05:08;;;;;;;3.47;3.27;;;;;;;;;;5014333;28;20482;-58
2023/07/15 01:07:35;;;;;;;4.30;4.00;;;;;;;;;;5014239;28;20541;-58
2023/07/15 01:10:02;;;;;;;4.00;3.50;;;;;;;;;;5014195;28;20454;-58
2023/07/15 01:12:29;;;;;;;6.70;3.50;;;;;;;;;;5014353;28;20541;-58
2023/07/15 01:14:56;;;;;;;3.90;3.60;;;;;;;;;;5014173;28;20458;-57
2023/07/15 01:17:23;;;;;;;4.07;3.77;;;;;;;;;;5014005;28;21007;-57
2023/07/15 01:19:50;;;;;;;5.80;3.50;;;;;;;;;;5013997;28;20896;-57
2023/07/15 01:22:19;;;;;;;4.30;3.40;;;;;;;;;;5013933;28;20488;-57
2023/07/15 01:24:47;;;;;;;3.63;3.33;;;;;;;;;;5014030;28;20500;-57
2023/07/15 01:27:14;;;;;;;3.63;3.43;;;;;;;;;;5014056;28;20460;-57
2023/07/15 01:29:41;;;;;;;3.60;3.30;;;;;;;;;;5013982;28;20461;-57
2023/07/15 01:32:09;;;;;;;4.40;3.07;;;;;;;;;;5013819;28;20822;-57
2023/07/15 01:34:36;;;;;;;3.47;3.17;;;;;;;;;;5013739;28;20547;-58
2023/07/15 01:37:04;;;;;;;3.90;3.60;;;;;;;;;;5013657;28;20555;-57
2023/07/15 01:39:31;;;;;;;4.33;4.03;;;;;;;;;;5013844;28;20466;-57
2023/07/15 01:42:00;;;;;;;3.60;3.30;;;;;;;;;;5013561;28;21004;-57
2023/07/15 01:44:27;;;;;;;4.53;3.77;;;;;;;;;;5013523;28;21020;-56
2023/07/15 01:46:54;;;;;;;5.97;3.70;;;;;;;;;;5013632;28;20489;-57
2023/07/15 01:49:21;;;;;;;3.40;3.10;;;;;;;;;;5013427;28;21010;-58
2023/07/15 01:51:49;;;;;;;3.63;3.10;;;;;;;;;;5013628;28;20452;-58
2023/07/15 01:54:16;;;;;;;3.80;3.50;;;;;;;;;;5013601;28;20457;-58
2023/07/15 01:56:43;;;;;;;4.03;3.27;;;;;;;;;;5013357;28;20581;-56
2023/07/15 01:59:11;;;;;;;4.10;3.43;;;;;;;;;;5012649;28;20546;-57
2023/07/15 02:01:39;;;;;;;4.50;2.93;;;;;;;;;;5013332;28;20543;-57
2023/07/15 02:04:06;;;;;;;5.70;3.57;;;;;;;;;;5013703;28;20481;-56
2023/07/15 02:06:33;;;;;;;4.10;3.73;;;;;;;;;;5013496;28;20459;-57
2023/07/15 02:09:03;;;;;;;4.00;3.70;;;;;;;;;;5013378;28;20844;-58
2023/07/15 02:11:31;;;;;;;4.30;3.70;;;;;;;;;;5013327;28;20526;-58
2023/07/15 02:13:58;;;;;;;4.33;3.93;;;;;;;;;;5013258;28;20484;-58
2023/07/15 02:16:27;;;;;;;3.57;3.30;;;;;;;;;;5013098;28;20457;-57
2023/07/15 02:18:54;;;;;;;3.80;3.50;;;;;;;;;;5013350;28;20458;-57
2023/07/15 02:21:21;;;;;;;3.80;3.60;;;;;;;;;;5013237;28;20551;-58
2023/07/15 02:23:47;;;;;;;3.73;3.40;;;;;;;;;;5013101;28;20462;-58
2023/07/15 02:26:14;;;;;;;5.43;3.90;;;;;;;;;;5013148;28;20544;-58
2023/07/15 02:28:41;;;;;;;6.17;3.90;;;;;;;;;;5013081;28;20453;-57
2023/07/15 02:31:09;;;;;;;3.90;3.70;;;;;;;;;;5012912;28;20883;-58
2023/07/15 02:33:38;;;;;;;4.40;3.90;;;;;;;;;;5013222;28;20463;-58
2023/07/15 02:36:05;;;;;;;4.17;3.77;;;;;;;;;;5013308;28;20467;-57
2023/07/15 02:38:32;;;;;;;6.67;4.50;;;;;;;;;;5013036;28;20541;-56
2023/07/15 02:40:59;;;;;;;4.00;3.80;;;;;;;;;;5012955;28;20539;-58
2023/07/15 02:43:26;;;;;;;5.03;3.97;;;;;;;;;;5012807;28;20464;-59
2023/07/15 02:45:54;;;;;;;5.20;4.67;;;;;;;;;;5013033;28;20842;-58
2023/07/15 02:48:21;;;;;;;4.87;4.50;;;;;;;;;;5012766;28;20948;-57
2023/07/15 02:50:53;;;;;;;5.43;5.03;;;;;;;;;;5012916;28;20456;-57
2023/07/15 02:53:19;;;;;;;4.73;4.17;;;;;;;;;;5013288;28;20461;-57
2023/07/15 02:55:46;;;;;;;5.13;4.07;;;;;;;;;;5012643;28;20975;-58
2023/07/15 02:58:14;;;;;;;7.60;4.40;;;;;;;;;;5012788;28;20493;-58
2023/07/15 03:00:41;;;;;;;4.63;4.23;;;;;;;;;;5012705;28;20947;-58
2023/07/15 03:03:09;;;;;;;5.17;4.77;;;;;;;;;;5012994;28;20945;-58
2023/07/15 03:05:36;;;;;;;5.20;4.17;;;;;;;;;;5012753;28;20543;-58
2023/07/15 03:08:05;;;;;;;5.70;5.03;;;;;;;;;;5012756;28;20472;-58
2023/07/15 03:10:32;;;;;;;4.70;4.30;;;;;;;;;;5014610;28;20452;-58
2023/07/15 03:12:59;;;;;;;6.00;4.30;;;;;;;;;;5016578;28;20498;-58
2023/07/15 03:15:26;;;;;;;4.07;3.70;;;;;;;;;;5016749;28;20468;-59
2023/07/15 03:17:53;;;;;;;4.33;3.90;;;;;;;;;;5016414;28;20452;-58
2023/07/15 03:20:20;;;;;;;5.17;4.77;;;;;;;;;;5016315;28;20549;-58
2023/07/15 03:22:47;;;;;;;4.47;4.13;;;;;;;;;;5016271;28;20949;-58
2023/07/15 03:25:22;;;;;;;5.30;4.07;;;;;;;;;;5016066;28;20480;-58
2023/07/15 03:27:50;;;;;;;5.03;4.60;;;;;;;;;;5016311;28;20488;-58
2023/07/15 03:30:17;;;;;;;6.63;4.20;;;;;;;;;;5016184;28;20449;-58
2023/07/15 03:32:45;;;;;;;5.70;5.10;;;;;;;;;;5016143;28;20472;-57
2023/07/15 03:35:12;;;;;;;5.40;4.93;;;;;;;;;;5015940;28;20812;-57
2023/07/15 03:37:40;;;;;;;5.17;4.77;;;;;;;;;;5015859;28;20458;-58
2023/07/15 03:40:08;;;;;;;4.77;4.47;;;;;;;;;;5016042;28;20452;-58
2023/07/15 03:42:36;;;;;;;4.27;3.97;;;;;;;;;;5015974;28;20453;-58
2023/07/15 03:45:04;;;;;;;7.97;4.60;;;;;;;;;;5015646;28;20980;-57
2023/07/15 03:47:31;;;;;;;4.50;4.20;;;;;;;;;;5015815;28;20812;-57
2023/07/15 03:49:58;;;;;;;6.13;4.40;;;;;;;;;;5015756;28;20434;-56
2023/07/15 03:52:25;;;;;;;5.50;4.73;;;;;;;;;;5015616;28;20456;-58
2023/07/15 03:54:51;;;;;;;5.33;4.83;;;;;;;;;;5015822;28;20457;-58
2023/07/15 03:57:18;;;;;;;4.93;4.60;;;;;;;;;;5015454;28;20666;-58
2023/07/15 03:59:47;;;;;;;5.00;4.70;;;;;;;;;;5015686;28;20484;-58
2023/07/15 04:02:13;;;;;;;5.57;5.07;;;;;;;;;;5015527;28;20453;-57
2023/07/15 04:04:41;;;;;;;4.90;3.93;;;;;;;;;;5015261;28;20972;-58
2023/07/15 04:07:09;;;;;;;5.07;4.60;;;;;;;;;;5015405;28;20633;-57
2023/07/15 04:09:36;;;;;;;5.80;5.30;;;;;;;;;;5015479;28;20514;-57
2023/07/15 04:12:02;;;;;;;5.37;4.33;;;;;;;;;;5015442;28;20789;-57
2023/07/15 04:14:29;;;;;;;4.87;4.47;;;;;;;;;;5015322;28;20539;-57
2023/07/15 04:16:58;;;;;;;4.90;4.40;;;;;;;;;;5015124;28;20963;-57
2023/07/15 04:19:25;;;;;;;4.90;4.50;;;;;;;;;;5015104;28;20453;-57
2023/07/15 04:21:52;;;;;;;4.80;4.50;;;;;;;;;;5014408;28;20459;-57
2023/07/15 04:24:18;;;;;;;5.23;4.17;;;;;;;;;;5015227;28;20537;-58
2023/07/15 04:26:45;;;;;;;4.90;4.60;;;;;;;;;;5014989;28;20495;-57
2023/07/15 04:29:13;;;;;;;4.57;4.27;;;;;;;;;;5014891;28;20456;-57
2023/07/15 04:31:42;;;;;;;5.77;4.90;;;;;;;;;;5014839;28;20523;-57
2023/07/15 04:34:10;;;;;;;4.60;4.27;;;;;;;;;;5014714;28;20531;-57
2023/07/15 04:36:37;;;;;;;4.97;4.50;;;;;;;;;;5014987;28;20543;-56
2023/07/15 04:39:05;;;;;;;4.70;4.30;;;;;;;;;;5014836;28;20451;-58
2023/07/15 04:41:33;;;;;;;4.77;4.37;;;;;;;;;;5014797;28;20453;-56
2023/07/15 04:44:00;;;;;;;4.03;3.73;;;;;;;;;;5014677;28;20838;-57
2023/07/15 04:46:27;;;;;;;4.70;4.30;;;;;;;;;;5014441;28;20493;-54
2023/07/15 04:48:54;;;;;;;4.77;4.33;;;;;;;;;;5014827;28;20500;-57
2023/07/15 04:51:22;;;;;;;4.60;4.30;;;;;;;;;;5014609;28;20451;-58
2023/07/15 04:53:49;;;;;;;4.87;4.47;;;;;;;;;;5014581;28;20457;-57
2023/07/15 04:56:16;;;;;;;4.70;4.30;;;;;;;;;;5014191;28;21021;-57
2023/07/15 04:58:43;;;;;;;4.53;4.23;;;;;;;;;;5014361;28;20456;-58
2023/07/15 05:01:10;;;;;;;4.63;4.33;;;;;;;;;;5014306;28;20453;-58
2023/07/15 05:03:37;;;;;;;4.60;4.30;;;;;;;;;;5014499;28;20543;-57
2023/07/15 05:06:04;;;;;;;6.33;4.30;;;;;;;;;;5014321;28;20488;-57
2023/07/15 05:08:32;;;;;;;4.23;3.83;;;;;;;;;;5014287;28;20540;-57
2023/07/15 05:10:59;;;;;;;5.47;4.90;;;;;;;;;;5014223;28;20548;-58
2023/07/15 05:13:26;;;;;;;8.13;4.20;;;;;;;;;;5014142;28;20600;-58
2023/07/15 05:15:53;;;;;;;7.00;4.00;;;;;;;;;;5014237;28;20449;-58
2023/07/15 05:18:20;;;;;;;5.10;4.60;;;;;;;;;;5014162;28;20496;-58
2023/07/15 05:20:47;;;;;;;5.40;4.53;;;;;;;;;;5014165;28;20883;-58
2023/07/15 05:23:14;;;;;;;4.50;4.30;;;;;;;;;;5014024;28;20944;-58
2023/07/15 05:25:42;;;;;;;5.97;4.27;;;;;;;;;;5013861;28;20979;-58
2023/07/15 05:28:09;;;;;;;3.90;3.67;;;;;;;;;;5013785;28;20465;-58
2023/07/15 05:30:37;;;;;;;4.30;3.90;;;;;;;;;;5014041;28;20507;-58
2023/07/15 05:33:04;;;;;;;6.50;4.20;;;;;;;;;;5013852;28;20821;-58
2023/07/15 05:35:31;;;;;;;4.43;4.03;;;;;;;;;;5013867;28;20455;-58
2023/07/15 05:37:58;;;;;;;6.10;4.70;;;;;;;;;;5013760;28;20449;-58
2023/07/15 05:40:25;;;;;;;5.87;4.13;;;;;;;;;;5013647;28;20878;-59
2023/07/15 05:42:53;;;;;;;6.33;3.70;;;;;;;;;;5013560;28;20482;-59
2023/07/15 05:45:20;;;;;;;4.67;4.27;;;;;;;;;;5013656;28;20474;-58
2023/07/15 05:47:47;;;;;;;4.03;3.70;;;;;;;;;;5013734;28;20569;-58
2023/07/15 05:50:14;;;;;;;6.40;4.20;;;;;;;;;;5013592;28;20457;-57
2023/07/15 05:52:41;;;;;;;4.20;3.80;;;;;;;;;;5013445;28;20497;-58
2023/07/15 05:55:08;;;;;;;5.37;4.90;;;;;;;;;;5013417;28;20461;-59
2023/07/15 05:57:36;;;;;;;3.43;3.13;;;;;;;;;;5013242;28;20475;-58
2023/07/15 06:00:04;;;;;;;4.10;3.83;;;;;;;;;;5013303;28;20943;-59
2023/07/15 06:02:31;;;;;;;5.70;4.07;;;;;;;;;;5013420;28;20542;-58
2023/07/15 06:04:58;;;;;;;3.53;3.33;;;;;;;;;;5013343;28;20446;-58
2023/07/15 06:07:25;;;;;;;3.40;3.10;;;;;;;;;;5013266;28;20545;-58
2023/07/15 06:09:52;;;;;;;4.27;3.77;;;;;;;;;;5013144;28;20728;-58
2023/07/15 06:12:19;;;;;;;3.93;3.50;;;;;;;;;;5013388;28;20460;-58
2023/07/15 06:14:46;;;;;;;7.77;3.60;;;;;;;;;;5013310;28;20534;-59
2023/07/15 06:17:14;;;;;;;8.80;4.23;;;;;;;;;;5013242;28;20476;-58
2023/07/15 06:19:41;;;;;;;4.43;4.03;;;;;;;;;;5013061;28;20934;-58
2023/07/15 06:22:08;;;;;;;4.53;3.50;;;;;;;;;;5013065;28;20451;-59
2023/07/15 06:24:35;;;;;;;4.53;4.07;;;;;;;;;;5013017;28;21027;-58
2023/07/15 06:27:02;;;;;;;3.20;2.90;;;;;;;;;;5013052;28;20540;-57
2023/07/15 06:29:29;;;;;;;3.40;3.10;;;;;;;;;;5013137;28;20552;-58
2023/07/15 06:31:56;;;;;;;3.77;3.40;;;;;;;;;;5013085;28;20478;-58
2023/07/15 06:34:24;;;;;;;5.33;4.43;;;;;;;;;;5012999;28;20867;-58
2023/07/15 06:36:51;;;;;;;4.93;4.17;;;;;;;;;;5012867;28;20554;-58
2023/07/15 06:39:18;;;;;;;3.27;2.97;;;;;;;;;;5013123;28;20537;-58
2023/07/15 06:41:45;;;;;;;3.70;3.40;;;;;;;;;;5013052;28;20442;-59
2023/07/15 06:44:12;;;;;;;4.63;3.27;;;;;;;;;;5013028;28;20482;-58
2023/07/15 06:46:39;;;;;;;3.60;3.30;;;;;;;;;;5016904;28;20478;-58
2023/07/15 06:49:06;;;;;;;4.27;3.87;;;;;;;;;;5016803;28;20813;-58
2023/07/15 06:51:34;;;;;;;3.77;3.43;;;;;;;;;;5016675;28;20500;-58
2023/07/15 06:54:02;;;;;;;5.03;3.67;;;;;;;;;;5016941;28;20450;-58
2023/07/15 06:56:28;;;;;;;3.97;3.67;;;;;;;;;;5016638;28;20569;-57
2023/07/15 06:58:55;;;;;;;3.40;3.10;;;;;;;;;;5016793;28;20488;-58
2023/07/15 07:01:22;;;;;;;3.50;3.20;;;;;;;;;;5016647;28;20450;-58
2023/07/15 07:03:49;;;;;;;3.53;3.33;;;;;;;;;;5016531;28;20537;-59
2023/07/15 07:06:16;;;;;;;3.67;3.47;;;;;;;;;;5016711;28;20482;-58
2023/07/15 07:08:45;;;;;;;4.23;3.00;;;;;;;;;;5016640;28;20450;-58
2023/07/15 07:11:12;;;;;;;3.30;3.10;;;;;;;;;;5016549;28;20456;-58
2023/07/15 07:13:39;;;;;;;8.83;3.90;;;;;;;;;;5016480;28;20450;-59
2023/07/15 07:16:06;;;;;;;4.07;3.53;;;;;;;;;;5016349;28;20457;-58
2023/07/15 07:18:33;;;;;;;3.10;2.90;;;;;;;;;;5016233;28;20460;-59
2023/07/15 07:21:01;;;;;;;4.07;3.70;;;;;;;;;;5016392;28;20542;-58
2023/07/15 07:23:29;;;;;;;3.10;2.87;;;;;;;;;;5016453;28;20890;-58
2023/07/15 07:25:58;;;;;;;4.27;2.97;;;;;;;;;;5016033;28;20985;-58
2023/07/15 07:28:25;;;;;;;3.63;3.33;;;;;;;;;;5016237;28;20826;-58
2023/07/15 07:30:52;;;;;;;3.90;3.60;;;;;;;;;;5016038;28;20461;-59
2023/07/15 07:33:20;;;;;;;3.50;3.20;;;;;;;;;;5016255;28;20561;-58
2023/07/15 07:35:47;;;;;;;4.70;3.77;;;;;;;;;;5016100;28;20455;-58
2023/07/15 07:38:14;;;;;;;6.30;4.20;;;;;;;;;;5015866;28;20545;-58
2023/07/15 07:40:41;;;;;;;3.03;2.83;;;;;;;;;;5016046;28;20517;-58
2023/07/15 07:43:10;;;;;;;3.87;3.40;;;;;;;;;;5015851;28;20497;-58
2023/07/15 07:45:36;;;;;;;4.43;2.93;;;;;;;;;;5015709;28;20482;-58
2023/07/15 07:48:04;;;;;;;3.43;3.13;;;;;;;;;;5015937;28;20545;-58
2023/07/15 07:50:31;;;;;;;3.50;3.20;;;;;;;;;;5015878;28;20450;-58
2023/07/15 07:52:58;;;;;;;3.13;2.80;;;;;;;;;;5015799;28;20479;-58
2023/07/15 07:55:25;;;;;;;3.00;2.80;;;;;;;;;;5015530;28;20806;-58
2023/07/15 07:57:52;;;;;;;2.80;2.60;;;;;;;;;;5014404;28;21001;-58
2023/07/15 08:00:20;;;;;;;6.40;3.03;;;;;;;;;;5015552;28;20486;-58
2023/07/15 08:02:47;;;;;;;3.53;3.30;;;;;;;;;;5015688;28;20550;-58
2023/07/15 08:05:14;;;;;;;3.17;3.07;;;;;;;;;;5015523;28;20450;-59
2023/07/15 08:07:41;;;;;;;3.63;3.33;;;;;;;;;;5015369;28;20486;-58
2023/07/15 08:10:08;;;;;;;3.40;3.10;;;;;;;;;;5015394;28;20454;-58
2023/07/15 08:12:35;;;;;;;3.00;2.80;;;;;;;;;;5015717;28;20492;-58
2023/07/15 08:15:03;;;;;;;3.70;3.40;;;;;;;;;;5015203;28;20460;-58
2023/07/15 08:17:32;;;;;;;3.20;3.00;;;;;;;;;;5015339;28;20761;-58
2023/07/15 08:19:59;;;;;;;4.70;2.60;;;;;;;;;;5015283;28;20850;-58
2023/07/15 08:22:25;;;;;;;3.10;2.80;;;;;;;;;;5015185;28;20863;-58
2023/07/15 08:24:52;;;;;;;2.73;2.47;;;;;;;;;;5014951;28;20457;-58
2023/07/15 08:27:20;;;;;;;3.20;3.00;;;;;;;;;;5014834;28;21077;-58
2023/07/15 08:29:47;;;;;;;3.77;3.47;;;;;;;;;;5015250;28;20818;-58
2023/07/15 08:32:14;;;;;;;3.23;2.97;;;;;;;;;;5014906;28;21017;-59
2023/07/15 08:34:57;;;;;;;8.23;7.57;;;;;;;;;;5014972;28;20463;-58
2023/07/15 08:37:24;;;;;;;6.63;3.63;;;;;;;;;;5014847;28;20952;-58
2023/07/15 08:39:51;;;;;;;3.07;2.93;;;;;;;;;;5014702;28;20456;-58
2023/07/15 08:42:19;;;;;;;6.27;2.80;;;;;;;;;;5014946;28;20545;-58
2023/07/15 08:44:46;;;;;;;3.40;3.10;;;;;;;;;;5014908;28;20451;-58
2023/07/15 08:47:14;;;;;;;3.00;2.80;;;;;;;;;;5014511;28;21023;-58
2023/07/15 08:49:43;;;;;;;3.07;2.77;;;;;;;;;;5014762;28;20484;-58
2023/07/15 08:52:10;;;;;;;3.07;2.80;;;;;;;;;;5014507;28;20541;-58
2023/07/15 08:54:38;;;;;;;3.10;2.80;;;;;;;;;;5014786;28;20498;-58
2023/07/15 08:57:05;;;;;;;3.10;2.47;;;;;;;;;;5014413;28;20990;-58
2023/07/15 08:59:32;;;;;;;2.83;2.50;;;;;;;;;;5014499;28;20461;-59
2023/07/15 09:02:00;;;;;;;2.90;2.47;;;;;;;;;;5014525;28;20454;-58
2023/07/15 09:04:27;;;;;;;3.03;2.73;;;;;;;;;;5014298;28;20461;-58
2023/07/15 09:06:55;;;;;;;2.60;2.40;;;;;;;;;;5014091;28;20489;-58
2023/07/15 09:09:31;;;;;;;3.57;2.30;;;;;;;;;;5014162;28;20457;-58
2023/07/15 09:12:00;;;;;;;2.87;2.47;;;;;;;;;;5014401;28;20450;-58
2023/07/15 09:14:27;;;;;;;2.90;2.70;;;;;;;;;;5014282;28;20453;-58
2023/07/15 09:16:55;;;;;;;2.73;2.27;;;;;;;;;;5014266;28;20473;-58
2023/07/15 09:19:22;;;;;;;2.83;2.47;;;;;;;;;;5014028;28;20465;-58
2023/07/15 09:21:53;;;;;;;2.87;2.67;;;;;;;;;;5014498;28;20451;-58
2023/07/15 09:24:22;;;;;;;2.77;2.60;;;;;;;;;;5013904;28;20807;-59
2023/07/15 09:26:49;;;;;;;2.53;2.33;;;;;;;;;;5013980;28;20576;-58
2023/07/15 09:29:20;;;;;;;2.63;2.53;;;;;;;;;;5013904;28;20617;-58
2023/07/15 09:31:47;;;;;;;3.33;2.67;;;;;;;;;;5013841;28;20461;-58
2023/07/15 09:34:14;;;;;;;3.03;2.83;;;;;;;;;;5014024;28;20486;-59
2023/07/15 09:36:41;;;;;;;2.97;2.77;;;;;;;;;;5013816;28;20455;-58
2023/07/15 09:39:12;;;;;;;2.83;2.37;;;;;;;;;;5013905;28;20814;-58
2023/07/15 09:41:41;;;;;;;2.60;2.50;;;;;;;;;;5013926;28;20482;-58
2023/07/15 09:44:07;;;;;;;3.00;2.63;;;;;;;;;;5013771;28;20455;-58
2023/07/15 09:46:34;;;;;;;2.50;2.30;;;;;;;;;;5013858;28;20897;-58
2023/07/15 09:49:01;;;;;;;2.90;2.30;;;;;;;;;;5013690;28;20814;-58
2023/07/15 09:51:28;;;;;;;9.13;2.57;;;;;;;;;;5013703;28;20533;-58
2023/07/15 09:53:56;;;;;;;2.20;1.87;;;;;;;;;;5013681;28;20450;-58
2023/07/15 09:56:24;;;;;;;4.00;3.70;;;;;;;;;;5013257;28;20482;-59
2023/07/15 09:58:56;;;;;;;4.77;2.20;;;;;;;;;;5013443;28;20451;-59
2023/07/15 10:01:28;;;;;;;4.03;2.17;;;;;;;;;;5013666;28;20778;-58
2023/07/15 10:03:58;;;;;;;4.17;2.10;;;;;;;;;;5013541;28;20561;-59
2023/07/15 10:06:26;;;;;;;2.70;2.50;;;;;;;;;;5013242;28;20446;-59
2023/07/15 10:08:53;;;;;;;2.60;2.40;;;;;;;;;;5013293;28;20457;-58
2023/07/15 10:11:20;;;;;;;2.40;2.20;;;;;;;;;;5013193;28;20545;-59
2023/07/15 10:13:47;;;;;;;2.27;2.03;;;;;;;;;;5013471;28;20545;-58
2023/07/15 10:16:15;;;;;;;1.90;1.80;;;;;;;;;;5013234;28;20932;-58
2023/07/15 10:18:42;;;;;;;2.20;2.00;;;;;;;;;;5013039;28;20496;-58
2023/07/15 10:21:10;;;;;;;2.10;1.90;;;;;;;;;;5012662;28;20446;-59
2023/07/15 10:23:37;;;;;;;2.73;1.80;;;;;;;;;;5013562;28;20454;-58
2023/07/15 10:26:05;;;;;;;2.47;1.80;;;;;;;;;;5013091;28;20864;-59
2023/07/15 10:28:34;;;;;;;5.03;2.17;;;;;;;;;;5012980;28;21025;-58
2023/07/15 10:31:06;;;;;;;4.27;2.20;;;;;;;;;;5013172;28;20459;-58
2023/07/15 10:33:35;;;;;;;3.13;2.40;;;;;;;;;;5013087;28;20454;-59
2023/07/15 10:36:04;;;;;;;3.10;2.37;;;;;;;;;;5013091;28;20442;-59
2023/07/15 10:38:32;;;;;;;2.57;2.20;;;;;;;;;;5013040;28;20455;-59
2023/07/15 10:41:02;;;;;;;2.20;2.10;;;;;;;;;;5013200;28;20453;-58
2023/07/15 10:43:39;;;;;;;3.50;2.60;;;;;;;;;;5013154;28;20478;-59
2023/07/15 10:46:06;;;;;;;2.83;2.00;;;;;;;;;;5012954;28;20508;-59
2023/07/15 10:48:35;;;;;;;2.23;2.03;;;;;;;;;;5012898;28;20847;-58
2023/07/15 10:51:04;;;;;;;2.90;2.00;;;;;;;;;;5013155;28;20889;-58
2023/07/15 10:53:31;;;;;;;2.50;2.30;;;;;;;;;;5013116;28;20454;-58
2023/07/15 10:55:58;;;;;;;2.67;2.10;;;;;;;;;;5012756;28;20481;-59
2023/07/15 10:58:26;;;;;;;2.50;1.80;;;;;;;;;;5012795;28;20754;-59
2023/07/15 11:00:58;;;;;;;2.47;2.27;;;;;;;;;;5012875;28;20450;-58
2023/07/15 11:03:25;;;;;;;2.13;2.03;;;;;;;;;;5012778;28;20446;-58
2023/07/15 11:05:55;;;;;;;3.60;2.10;;;;;;;;;;5012691;28;20554;-59
2023/07/15 11:08:22;;;;;;;3.27;2.10;;;;;;;;;;5012620;28;21092;-60
2023/07/15 11:10:49;;;;;;;2.40;2.07;;;;;;;;;;5012901;28;20891;-58
2023/07/15 11:13:17;;;;;;;2.20;2.10;;;;;;;;;;5012803;28;20454;-58
2023/07/15 11:15:45;;;;;;;2.60;1.80;;;;;;;;;;5012657;28;20819;-58
2023/07/15 11:18:16;;;;;;;4.63;1.93;;;;;;;;;;5012525;28;20858;-59
2023/07/15 11:20:43;;;;;;;2.20;2.07;;;;;;;;;;5012786;28;20807;-58
2023/07/15 11:23:12;;;;;;;2.00;1.90;;;;;;;;;;5012633;28;20464;-58
2023/07/15 11:25:39;;;;;;;1.73;1.60;;;;;;;;;;5012636;28;20450;-58
2023/07/15 11:28:06;;;;;;;2.27;2.07;;;;;;;;;;5012512;28;20482;-58
2023/07/15 11:30:36;;;;;;;2.50;2.30;;;;;;;;;;5013021;28;20825;-58
2023/07/15 11:33:03;;;;;;;2.57;2.40;;;;;;;;;;5016299;28;20542;-58
2023/07/15 11:35:32;;;;;;;4.23;2.30;;;;;;;;;;5016146;28;20457;-59
2023/07/15 11:37:59;;;;;;;1.90;1.80;;;;;;;;;;5016118;28;20450;-59
2023/07/15 11:40:27;;;;;;;2.20;2.00;;;;;;;;;;5016049;28;20462;-59
2023/07/15 11:42:54;;;;;;;3.57;2.17;;;;;;;;;;5015926;28;20450;-60
2023/07/15 11:45:24;;;;;;;2.63;2.03;;;;;;;;;;5015769;28;20449;-58
2023/07/15 11:47:54;;;;;;;2.17;2.07;;;;;;;;;;5015851;28;20486;-58
2023/07/15 11:50:25;;;;;;;2.10;2.00;;;;;;;;;;5015942;28;20461;-59
2023/07/15 11:52:52;;;;;;;2.30;2.10;;;;;;;;;;5015734;28;20500;-59
2023/07/15 11:55:24;;;;;;;2.60;2.40;;;;;;;;;;5015674;28;20489;-59
2023/07/15 11:57:53;;;;;;;2.40;2.13;;;;;;;;;;5015481;28;20556;-59
2023/07/15 12:00:26;;;;;;;2.70;1.90;;;;;;;;;;5015508;28;20981;-59
2023/07/15 12:02:54;;;;;;;2.00;1.90;;;;;;;;;;5015623;28;20848;-59
2023/07/15 12:05:20;;;;;;;2.37;2.20;;;;;;;;;;5015527;28;20454;-58
2023/07/15 12:07:48;;;;;;;2.30;2.10;;;;;;;;;;5015347;28;20483;-59
2023/07/15 12:10:16;;;;;;;2.27;2.17;;;;;;;;;;5015248;28;20807;-59
2023/07/15 12:12:45;;;;;;;2.43;2.23;;;;;;;;;;5015580;28;20454;-58
2023/07/15 12:15:13;;;;;;;2.40;1.67;;;;;;;;;;5015511;28;20490;-59
2023/07/15 12:17:40;;;;;;;1.90;1.80;;;;;;;;;;5015480;28;20553;-59
2023/07/15 12:20:08;;;;;;;2.33;1.73;;;;;;;;;;5015294;28;20541;-59
2023/07/15 12:22:35;;;;;;;1.60;1.50;;;;;;;;;;5015125;28;20810;-59
2023/07/15 12:25:02;;;;;;;1.60;1.50;;;;;;;;;;5015371;28;20901;-59
2023/07/15 12:27:30;;;;;;;1.70;1.60;;;;;;;;;;5015209;28;21057;-59
2023/07/15 12:29:57;;;;;;;2.40;1.47;;;;;;;;;;5015211;28;20478;-59
2023/07/15 12:32:26;;;;;;;1.50;1.40;;;;;;;;;;5014987;28;20882;-59
2023/07/15 12:34:53;;;;;;;1.60;1.50;;;;;;;;;;5015008;28;20485;-59
2023/07/15 12:37:20;;;;;;;2.90;1.80;;;;;;;;;;5014861;28;20537;-59
2023/07/15 12:39:47;;;;;;;1.90;1.33;;;;;;;;;;5014960;28;20887;-59
2023/07/15 12:42:14;;;;;;;5.73;1.60;;;;;;;;;;5014204;28;20538;-59
2023/07/15 12:44:40;;;;;;;2.70;1.63;;;;;;;;;;5014866;28;20450;-59
2023/07/15 12:47:07;;;;;;;1.60;1.50;;;;;;;;;;5014742;28;20534;-59
2023/07/15 12:49:36;;;;;;;2.10;1.97;;;;;;;;;;5014766;28;20537;-60
2023/07/15 12:52:03;;;;;;;2.53;1.70;;;;;;;;;;5014597;28;20566;-59
2023/07/15 12:54:29;;;;;;;2.47;2.00;;;;;;;;;;5014829;28;20818;-59
2023/07/15 12:56:56;;;;;;;1.90;1.80;;;;;;;;;;5014199;28;20478;-59
2023/07/15 12:59:23;;;;;;;2.17;1.40;;;;;;;;;;5014569;28;20451;-59
2023/07/15 13:01:50;;;;;;;1.50;1.40;;;;;;;;;;5014505;28;20897;-59
2023/07/15 13:04:17;;;;;;;1.40;1.30;;;;;;;;;;5014348;28;20493;-59
2023/07/15 13:06:46;;;;;;;2.13;1.93;;;;;;;;;;5014538;28;20447;-59
2023/07/15 13:09:12;;;;;;;1.60;1.50;;;;;;;;;;5014459;28;20487;-58
2023/07/15 13:11:39;;;;;;;1.80;1.47;;;;;;;;;;5014394;28;20484;-56
2023/07/15 13:14:06;;;;;;;1.77;1.67;;;;;;;;;;5014252;28;20483;-56
2023/07/15 13:16:33;;;;;;;2.53;1.70;;;;;;;;;;5014262;28;20882;-56
2023/07/15 13:19:00;;;;;;;1.53;1.43;;;;;;;;;;5014055;28;20537;-59
2023/07/15 13:21:27;;;;;;;1.57;1.47;;;;;;;;;;5014336;28;20446;-59
2023/07/15 13:23:56;;;;;;;2.27;1.30;;;;;;;;;;5014192;28;20879;-59
2023/07/15 13:26:23;;;;;;;1.53;1.30;;;;;;;;;;5014195;28;20450;-59
2023/07/15 13:28:50;;;;;;;4.20;1.70;;;;;;;;;;5013975;28;20874;-56
2023/07/15 13:31:17;;;;;;;1.50;1.40;;;;;;;;;;5013858;28;20453;-56
2023/07/15 13:33:43;;;;;;;1.50;1.40;;;;;;;;;;5014168;28;20525;-56
2023/07/15 13:36:10;;;;;;;7.77;1.70;;;;;;;;;;5014088;28;20810;-56
2023/07/15 13:38:37;;;;;;;1.63;1.53;;;;;;;;;;5013892;28;20451;-56
2023/07/15 13:41:05;;;;;;;2.47;1.70;;;;;;;;;;5013816;28;20989;-57
2023/07/15 13:43:32;;;;;;;4.50;1.90;;;;;;;;;;5013832;28;20453;-57
2023/07/15 13:45:59;;;;;;;1.50;1.20;;;;;;;;;;5013587;28;20447;-57
2023/07/15 13:48:26;;;;;;;2.30;1.60;;;;;;;;;;5013793;28;20482;-57
2023/07/15 13:50:53;;;;;;;1.47;1.23;;;;;;;;;;5013715;28;20460;-58
2023/07/15 13:53:20;;;;;;;2.33;1.50;;;;;;;;;;5013513;28;20458;-56
2023/07/15 13:55:47;;;;;;;1.57;1.47;;;;;;;;;;5012542;28;20459;-57
2023/07/15 13:58:15;;;;;;;1.97;1.27;;;;;;;;;;5013509;28;20485;-57
2023/07/15 14:00:42;;;;;;;1.30;1.20;;;;;;;;;;5013375;28;20451;-57
2023/07/15 14:03:09;;;;;;;1.53;1.43;;;;;;;;;;5013361;28;21027;-57
2023/07/15 14:05:36;;;;;;;2.50;1.40;;;;;;;;;;5013495;28;20454;-57
2023/07/15 14:08:03;;;;;;;1.40;1.30;;;;;;;;;;5013339;28;20565;-57
2023/07/15 14:10:30;;;;;;;1.40;1.30;;;;;;;;;;5013185;28;20482;-57
2023/07/15 14:12:57;;;;;;;1.40;1.30;;;;;;;;;;5013365;28;21061;-57
2023/07/15 14:15:25;;;;;;;1.60;1.20;;;;;;;;;;5013188;28;20482;-57
2023/07/15 14:17:52;;;;;;;1.20;1.10;;;;;;;;;;5013465;28;20452;-56
2023/07/15 14:20:19;;;;;;;1.80;1.37;;;;;;;;;;5013332;28;20531;-57
2023/07/15 14:22:45;;;;;;;1.10;1.03;;;;;;;;;;5013080;28;21009;-56
2023/07/15 14:25:12;;;;;;;1.27;1.17;;;;;;;;;;5013129;28;20537;-57
2023/07/15 14:27:39;;;;;;;1.50;1.40;;;;;;;;;;5012976;28;20460;-57
2023/07/15 14:30:07;;;;;;;1.33;1.23;;;;;;;;;;5013257;28;20461;-57
2023/07/15 14:32:35;;;;;;;1.30;1.20;;;;;;;;;;5013176;28;20457;-58
2023/07/15 14:35:02;;;;;;;3.73;1.17;;;;;;;;;;5013006;28;20974;-58
2023/07/15 14:37:29;;;;;;;1.20;1.10;;;;;;;;;;5013080;28;20484;-58
2023/07/15 14:39:56;;;;;;;1.10;1.00;;;;;;;;;;5013030;28;20792;-58
2023/07/15 14:42:23;;;;;;;1.60;1.50;;;;;;;;;;5012958;28;20454;-57
2023/07/15 14:44:50;;;;;;;1.60;1.50;;;;;;;;;;5013229;28;20451;-58